createdAt,value
2023-06-29T00:00:23.993Z,2.63
2023-06-29T00:02:50.998Z,2.42
2023-06-29T00:05:19.638Z,3.30
2023-06-29T00:07:46.120Z,2.72
2023-06-29T00:10:12.687Z,3.17
2023-06-29T00:12:39.236Z,2.08
2023-06-29T00:15:06.663Z,2.88
2023-06-29T00:17:33.184Z,2.25
2023-06-29T00:20:01.941Z,2.45
2023-06-29T00:22:28.521Z,2.28
2023-06-29T00:24:59.600Z,2.05
2023-06-29T00:27:26.361Z,2.80
2023-06-29T00:29:52.899Z,2.25
2023-06-29T00:32:19.514Z,2.28
2023-06-29T00:34:46.432Z,2.35
2023-06-29T00:37:12.927Z,2.45
2023-06-29T00:39:40.240Z,1.90
2023-06-29T00:42:07.144Z,2.63
2023-06-29T00:44:33.720Z,2.20
2023-06-29T00:47:00.857Z,2.85
2023-06-29T00:49:28.640Z,2.83
2023-06-29T00:51:56.984Z,4.65
2023-06-29T00:54:26.260Z,2.00
2023-06-29T00:56:53.567Z,2.10
2023-06-29T00:59:20.749Z,5.28
2023-06-29T01:01:47.561Z,3.15
2023-06-29T01:04:18.710Z,2.13
2023-06-29T01:07:04.111Z,2.97
2023-06-29T01:09:34.092Z,2.80
2023-06-29T01:12:02.229Z,2.35
2023-06-29T01:14:31.819Z,2.40
2023-06-29T01:16:59.624Z,2.20
2023-06-29T01:19:29.841Z,2.25
2023-06-29T01:22:28.231Z,2.22
2023-06-29T01:24:57.365Z,2.30
2023-06-29T01:27:23.817Z,2.63
2023-06-29T01:29:54.492Z,3.40
2023-06-29T01:32:21.027Z,2.30
2023-06-29T01:34:48.090Z,3.08
2023-06-29T01:37:20.707Z,1.90
2023-06-29T01:39:55.112Z,2.00
2023-06-29T01:42:22.131Z,2.72
2023-06-29T01:44:49.393Z,1.92
2023-06-29T01:47:18.226Z,2.78
2023-06-29T01:49:45.098Z,2.28
2023-06-29T01:52:11.886Z,2.55
2023-06-29T01:54:38.528Z,2.72
2023-06-29T01:57:08.532Z,2.92
2023-06-29T01:59:35.976Z,2.65
2023-06-29T02:02:03.049Z,3.92
2023-06-29T02:04:32.168Z,2.60
2023-06-29T02:06:58.711Z,2.90
2023-06-29T02:09:25.274Z,3.38
2023-06-29T02:11:51.751Z,2.30
2023-06-29T02:14:18.410Z,2.47
2023-06-29T02:16:50.251Z,4.30
2023-06-29T02:19:16.731Z,2.42
2023-06-29T02:21:44.770Z,2.38
2023-06-29T02:24:11.601Z,2.35
2023-06-29T02:26:38.108Z,2.55
2023-06-29T02:29:05.033Z,2.38
2023-06-29T02:31:31.569Z,2.78
2023-06-29T02:33:58.749Z,3.08
2023-06-29T02:36:25.852Z,2.90
2023-06-29T02:38:52.463Z,2.20
2023-06-29T02:41:21.025Z,2.45
2023-06-29T02:43:47.511Z,2.30
2023-06-29T02:46:14.045Z,7.47
2023-06-29T02:48:43.395Z,7.18
2023-06-29T02:51:10.458Z,6.22
2023-06-29T02:53:38.623Z,9.57
2023-06-29T02:56:05.138Z,5.47
2023-06-29T02:58:31.594Z,2.50
2023-06-29T03:00:59.020Z,3.05
2023-06-29T03:03:27.415Z,2.25
2023-06-29T03:05:53.913Z,2.75
2023-06-29T03:08:20.509Z,23.85
2023-06-29T03:10:47.044Z,27.98
2023-06-29T03:13:13.538Z,53.92
2023-06-29T03:15:40.094Z,45.88
2023-06-29T03:18:06.605Z,43.03
2023-06-29T03:20:33.124Z,17.58
2023-06-29T03:22:59.624Z,8.70
2023-06-29T03:25:26.140Z,3.90
2023-06-29T03:27:52.642Z,6.10
2023-06-29T03:30:19.141Z,5.00
2023-06-29T03:32:45.592Z,3.30
2023-06-29T03:35:12.118Z,2.78
2023-06-29T03:37:38.599Z,2.03
2023-06-29T03:40:05.745Z,2.70
2023-06-29T03:42:32.219Z,2.70
2023-06-29T03:44:58.684Z,2.40
2023-06-29T03:47:25.278Z,4.38
2023-06-29T03:49:52.035Z,2.60
2023-06-29T03:52:18.502Z,2.55
2023-06-29T03:54:44.989Z,2.88
2023-06-29T03:57:11.503Z,3.55
2023-06-29T03:59:37.993Z,2.30
2023-06-29T04:02:05.023Z,2.33
2023-06-29T04:04:31.614Z,2.75
2023-06-29T04:06:58.139Z,2.55
2023-06-29T04:09:24.653Z,2.72
2023-06-29T04:11:51.158Z,2.45
2023-06-29T04:14:17.749Z,2.50
2023-06-29T04:16:44.241Z,2.60
2023-06-29T04:19:10.818Z,2.72
2023-06-29T04:21:37.364Z,2.38
2023-06-29T04:24:04.245Z,4.88
2023-06-29T04:26:30.734Z,3.60
2023-06-29T04:29:02.061Z,2.80
2023-06-29T04:31:29.416Z,3.72
2023-06-29T04:33:59.082Z,3.55
2023-06-29T04:36:26.560Z,2.60
2023-06-29T04:38:53.169Z,2.83
2023-06-29T04:41:19.716Z,2.83
2023-06-29T04:43:48.807Z,3.28
2023-06-29T04:46:15.330Z,2.90
2023-06-29T04:48:41.863Z,3.72
2023-06-29T04:51:08.397Z,4.10
2023-06-29T04:53:35.753Z,2.60
2023-06-29T04:56:03.082Z,2.50
2023-06-29T04:58:29.820Z,2.88
2023-06-29T05:00:56.537Z,3.00
2023-06-29T05:03:24.993Z,3.08
2023-06-29T05:05:51.937Z,2.97
2023-06-29T05:08:18.417Z,3.95
2023-06-29T05:10:45.070Z,2.80
2023-06-29T05:13:11.642Z,2.60
2023-06-29T05:15:38.152Z,3.67
2023-06-29T05:18:04.725Z,3.45
2023-06-29T05:20:31.230Z,3.20
2023-06-29T05:22:57.767Z,3.63
2023-06-29T05:25:24.288Z,3.17
2023-06-29T05:27:50.737Z,2.67
2023-06-29T05:30:17.845Z,3.00
2023-06-29T05:32:44.650Z,2.85
2023-06-29T05:35:11.207Z,3.85
2023-06-29T05:37:37.703Z,3.80
2023-06-29T05:40:04.894Z,2.88
2023-06-29T05:42:31.381Z,3.38
2023-06-29T05:44:57.943Z,4.53
2023-06-29T05:47:24.513Z,3.80
2023-06-29T05:49:51.116Z,2.90
2023-06-29T05:52:17.682Z,4.20
2023-06-29T05:54:44.171Z,2.85
2023-06-29T05:57:10.669Z,5.13
2023-06-29T05:59:37.289Z,2.85
2023-06-29T06:02:03.889Z,4.07
2023-06-29T06:04:30.415Z,5.40
2023-06-29T06:06:56.927Z,3.47
2023-06-29T06:09:23.421Z,4.80
2023-06-29T06:11:50.314Z,3.60
2023-06-29T06:14:16.787Z,4.35
2023-06-29T06:16:43.335Z,5.10
2023-06-29T06:19:10.067Z,3.25
2023-06-29T06:21:36.537Z,4.22
2023-06-29T06:24:03.064Z,2.70
2023-06-29T06:26:29.589Z,3.28
2023-06-29T06:28:56.079Z,3.85
2023-06-29T06:31:33.294Z,3.00
2023-06-29T06:34:01.001Z,2.90
2023-06-29T06:36:28.764Z,2.95
2023-06-29T06:38:55.202Z,2.53
2023-06-29T06:41:22.217Z,2.70
2023-06-29T06:43:48.787Z,2.60
2023-06-29T06:46:15.345Z,2.20
2023-06-29T06:48:41.893Z,1.88
2023-06-29T06:51:08.381Z,2.88
2023-06-29T06:53:34.924Z,3.35
2023-06-29T06:56:01.718Z,1.98
2023-06-29T06:58:28.200Z,2.17
2023-06-29T07:00:54.753Z,2.58
2023-06-29T07:03:21.268Z,4.05
2023-06-29T07:05:47.956Z,1.70
2023-06-29T07:08:14.416Z,1.58
2023-06-29T07:10:41.057Z,1.95
2023-06-29T07:13:07.707Z,1.88
2023-06-29T07:15:34.201Z,2.20
2023-06-29T07:18:00.697Z,2.90
2023-06-29T07:25:25.982Z,2.42
2023-06-29T07:27:52.466Z,2.60
2023-06-29T07:30:18.957Z,2.05
2023-06-29T07:32:45.489Z,2.80
2023-06-29T07:35:13.242Z,1.77
2023-06-29T07:37:39.740Z,1.83
2023-06-29T07:40:07.233Z,2.42
2023-06-29T07:42:39.301Z,3.17
2023-06-29T07:45:07.346Z,2.25
2023-06-29T07:47:34.023Z,1.70
2023-06-29T07:50:00.638Z,1.98
2023-06-29T07:52:27.990Z,1.83
2023-06-29T07:54:54.516Z,2.55
2023-06-29T07:59:50.435Z,5.53
2023-06-29T08:02:17.197Z,5.90
2023-06-29T08:07:14.065Z,2.30
2023-06-29T08:09:40.758Z,3.50
2023-06-29T08:12:07.774Z,2.35
2023-06-29T08:14:35.935Z,1.80
2023-06-29T08:17:04.053Z,3.20
2023-06-29T08:19:30.632Z,3.65
2023-06-29T08:21:57.973Z,4.45
2023-06-29T08:24:24.598Z,1.90
2023-06-29T08:26:51.095Z,2.45
2023-06-29T08:29:17.625Z,1.85
2023-06-29T08:31:44.258Z,2.00
2023-06-29T08:34:10.982Z,1.70
2023-06-29T08:36:37.663Z,1.67
2023-06-29T08:39:04.154Z,8.05
2023-06-29T08:41:30.712Z,2.25
2023-06-29T08:43:57.292Z,2.50
2023-06-29T08:46:24.917Z,2.00
2023-06-29T08:48:51.578Z,2.92
2023-06-29T08:51:19.808Z,3.28
2023-06-29T08:53:47.245Z,3.22
2023-06-29T08:56:14.605Z,2.67
2023-06-29T08:58:41.515Z,2.20
2023-06-29T09:01:08.312Z,2.75
2023-06-29T09:03:36.992Z,2.00
2023-06-29T09:06:04.734Z,2.15
2023-06-29T09:08:31.728Z,2.25
2023-06-29T09:10:58.274Z,3.38
2023-06-29T09:13:27.975Z,3.10
2023-06-29T09:15:55.519Z,2.10
2023-06-29T09:18:26.213Z,2.70
2023-06-29T09:20:56.261Z,2.65
2023-06-29T09:23:23.621Z,8.60
2023-06-29T09:25:53.478Z,3.55
2023-06-29T09:28:19.950Z,2.80
2023-06-29T09:30:46.692Z,3.00
2023-06-29T09:33:14.786Z,2.63
2023-06-29T09:35:45.645Z,2.15
2023-06-29T09:38:12.174Z,3.55
2023-06-29T09:40:52.850Z,3.13
2023-06-29T09:43:26.936Z,2.85
2023-06-29T09:46:05.164Z,2.95
2023-06-29T09:51:02.103Z,2.78
2023-06-29T09:53:30.513Z,2.22
2023-06-29T09:55:59.849Z,2.65
2023-06-29T09:58:30.273Z,2.45
2023-06-29T10:01:00.448Z,2.25
2023-06-29T10:03:32.777Z,3.78
2023-06-29T10:06:09.833Z,2.38
2023-06-29T10:08:37.761Z,2.20
2023-06-29T10:11:04.963Z,2.42
2023-06-29T10:13:38.290Z,2.40
2023-06-29T10:16:09.851Z,2.63
2023-06-29T10:18:40.302Z,1.90
2023-06-29T10:21:07.551Z,2.40
2023-06-29T10:23:35.745Z,2.35
2023-06-29T10:26:05.379Z,3.05
2023-06-29T10:28:32.315Z,3.95
2023-06-29T10:31:00.754Z,2.83
2023-06-29T10:33:27.628Z,3.40
2023-06-29T10:35:59.067Z,2.47
2023-06-29T10:38:31.551Z,2.60
2023-06-29T10:40:58.353Z,2.85
2023-06-29T10:44:00.760Z,3.22
2023-06-29T10:46:47.131Z,2.25
2023-06-29T10:49:27.473Z,2.92
2023-06-29T10:51:56.133Z,3.70
2023-06-29T10:54:26.427Z,3.47
2023-06-29T10:56:59.833Z,2.58
2023-06-29T10:59:28.087Z,2.50
2023-06-29T11:01:55.373Z,2.45
2023-06-29T11:04:25.221Z,3.50
2023-06-29T11:06:52.020Z,4.05
2023-06-29T11:09:20.556Z,3.90
2023-06-29T11:11:49.095Z,2.90
2023-06-29T11:14:16.342Z,4.72
2023-06-29T11:16:43.208Z,2.40
2023-06-29T11:22:00.897Z,2.15
2023-06-29T11:24:27.869Z,2.35
2023-06-29T11:26:54.876Z,2.67
2023-06-29T11:29:22.354Z,2.83
2023-06-29T11:31:49.159Z,2.30
2023-06-29T11:34:15.685Z,3.20
2023-06-29T11:36:47.503Z,2.30
2023-06-29T11:39:19.684Z,2.47
2023-06-29T11:41:48.478Z,3.00
2023-06-29T11:44:15.627Z,2.75
2023-06-29T11:46:44.047Z,3.03
2023-06-29T11:49:10.547Z,2.78
2023-06-29T11:51:40.193Z,2.70
2023-06-29T11:54:08.414Z,2.55
2023-06-29T11:56:35.728Z,2.75
2023-06-29T11:59:08.791Z,2.10
2023-06-29T12:01:37.128Z,3.28
2023-06-29T12:04:08.405Z,3.28
2023-06-29T12:06:35.055Z,3.67
2023-06-29T12:09:10.103Z,2.83
2023-06-29T12:11:36.626Z,4.03
2023-06-29T12:14:03.440Z,2.65
2023-06-29T12:19:00.574Z,3.58
2023-06-29T12:21:27.331Z,2.38
2023-06-29T12:23:54.135Z,3.28
2023-06-29T12:26:22.316Z,2.65
2023-06-29T12:28:48.871Z,3.65
2023-06-29T12:31:15.364Z,2.67
2023-06-29T12:33:41.867Z,3.13
2023-06-29T12:36:08.362Z,2.10
2023-06-29T12:38:34.830Z,2.40
2023-06-29T12:41:01.310Z,2.65
2023-06-29T12:43:27.786Z,5.53
2023-06-29T12:45:54.211Z,4.88
2023-06-29T12:48:20.697Z,3.25
2023-06-29T12:50:47.529Z,2.38
2023-06-29T12:53:14.224Z,2.38
2023-06-29T12:55:40.963Z,15.93
2023-06-29T12:58:07.524Z,4.05
2023-06-29T13:00:35.194Z,2.63
2023-06-29T13:03:08.580Z,3.05
2023-06-29T13:05:36.320Z,2.20
2023-06-29T13:08:02.849Z,4.03
2023-06-29T13:10:31.208Z,2.55
2023-06-29T13:12:59.456Z,3.63
2023-06-29T13:15:26.052Z,2.70
2023-06-29T13:17:52.962Z,2.17
2023-06-29T13:20:19.749Z,2.30
2023-06-29T13:22:46.318Z,2.88
2023-06-29T13:25:13.311Z,3.45
2023-06-29T13:27:42.486Z,2.53
2023-06-29T13:30:09.799Z,4.10
2023-06-29T13:32:36.365Z,2.80
2023-06-29T13:35:04.514Z,3.13
2023-06-29T13:37:31.020Z,3.30
2023-06-29T13:39:57.536Z,5.50
2023-06-29T13:42:24.050Z,3.65
2023-06-29T13:44:50.690Z,3.40
2023-06-29T13:47:23.219Z,6.13
2023-06-29T13:49:50.332Z,3.50
2023-06-29T13:52:16.935Z,2.50
2023-06-29T13:54:43.715Z,2.70
2023-06-29T13:57:10.484Z,2.53
2023-06-29T13:59:36.956Z,2.70
2023-06-29T14:02:03.591Z,2.80
2023-06-29T14:04:30.127Z,2.95
2023-06-29T14:06:56.664Z,2.33
2023-06-29T14:09:23.199Z,3.15
2023-06-29T14:11:49.930Z,4.05
2023-06-29T14:14:16.487Z,2.60
2023-06-29T14:16:44.137Z,5.05
2023-06-29T14:19:10.688Z,2.65
2023-06-29T14:21:37.184Z,3.10
2023-06-29T14:24:03.812Z,4.53
2023-06-29T14:26:30.280Z,2.85
2023-06-29T14:28:56.729Z,2.92
2023-06-29T14:31:23.267Z,4.03
2023-06-29T14:33:49.887Z,3.20
2023-06-29T14:36:16.524Z,2.65
2023-06-29T14:38:43.014Z,2.90
2023-06-29T14:41:09.533Z,3.70
2023-06-29T14:43:35.997Z,2.50
2023-06-29T14:46:02.487Z,3.72
2023-06-29T14:48:29.053Z,2.78
2023-06-29T14:50:55.635Z,2.97
2023-06-29T14:53:23.322Z,2.95
2023-06-29T14:55:50.561Z,2.97
2023-06-29T14:58:17.983Z,3.10
2023-06-29T15:00:45.308Z,2.65
2023-06-29T15:03:12.247Z,4.65
2023-06-29T15:05:38.854Z,2.80
2023-06-29T15:08:05.332Z,5.55
2023-06-29T15:10:31.978Z,2.83
2023-06-29T15:12:58.463Z,3.03
2023-06-29T15:15:25.018Z,3.13
2023-06-29T15:17:51.664Z,4.75
2023-06-29T15:20:19.132Z,3.28
2023-06-29T15:22:45.974Z,5.53
2023-06-29T15:25:12.619Z,3.65
2023-06-29T15:27:39.399Z,3.25
2023-06-29T15:30:06.620Z,7.50
2023-06-29T15:32:33.635Z,4.40
2023-06-29T15:35:01.748Z,5.60
2023-06-29T15:37:28.224Z,5.72
2023-06-29T15:39:54.695Z,3.35
2023-06-29T15:42:21.198Z,4.85
2023-06-29T15:44:47.779Z,3.10
2023-06-29T15:47:14.536Z,5.35
2023-06-29T15:49:41.020Z,6.07
2023-06-29T15:52:07.703Z,4.18
2023-06-29T15:54:34.188Z,7.50
2023-06-29T15:57:00.651Z,11.25
2023-06-29T15:59:27.226Z,6.95
2023-06-29T16:01:53.796Z,5.50
2023-06-29T16:04:21.510Z,6.47
2023-06-29T16:06:48.150Z,8.73
2023-06-29T16:09:14.696Z,6.63
2023-06-29T16:11:41.265Z,5.60
2023-06-29T16:14:07.833Z,7.20
2023-06-29T16:16:34.341Z,8.10
2023-06-29T16:19:01.047Z,7.55
2023-06-29T16:21:27.645Z,6.90
2023-06-29T16:23:54.160Z,6.63
2023-06-29T16:26:20.891Z,6.28
2023-06-29T16:28:47.410Z,6.57
2023-06-29T16:31:14.074Z,5.63
2023-06-29T16:33:40.922Z,8.27
2023-06-29T16:36:07.588Z,5.28
2023-06-29T16:38:34.153Z,5.88
2023-06-29T16:41:00.659Z,6.18
2023-06-29T16:43:27.177Z,5.63
2023-06-29T16:45:53.648Z,6.15
2023-06-29T16:48:20.117Z,5.88
2023-06-29T16:50:47.148Z,6.78
2023-06-29T16:53:13.667Z,7.45
2023-06-29T16:55:40.150Z,7.80
2023-06-29T16:58:06.657Z,5.07
2023-06-29T17:00:33.183Z,7.75
2023-06-29T17:02:59.744Z,6.65
2023-06-29T17:05:27.959Z,5.97
2023-06-29T17:07:56.720Z,6.10
2023-06-29T17:10:23.559Z,8.32
2023-06-29T17:12:50.065Z,7.80
2023-06-29T17:15:16.619Z,7.82
2023-06-29T17:17:43.194Z,7.72
2023-06-29T17:20:10.366Z,7.80
2023-06-29T17:22:36.868Z,9.63
2023-06-29T17:25:03.513Z,6.95
2023-06-29T17:27:29.996Z,6.85
2023-06-29T17:29:56.479Z,7.70
2023-06-29T17:32:23.090Z,6.38
2023-06-29T17:34:49.574Z,6.85
2023-06-29T17:37:16.095Z,6.15
2023-06-29T17:39:42.599Z,6.05
2023-06-29T17:42:19.744Z,6.65
2023-06-29T17:44:47.071Z,6.78
2023-06-29T17:47:13.569Z,5.38
2023-06-29T17:49:40.131Z,7.32
2023-06-29T17:52:07.053Z,7.28
2023-06-29T17:54:33.548Z,6.22
2023-06-29T17:57:00.388Z,7.68
2023-06-29T17:59:26.858Z,5.93
2023-06-29T18:01:53.403Z,8.07
2023-06-29T18:04:20.646Z,6.25
2023-06-29T18:06:47.214Z,6.22
2023-06-29T18:09:14.903Z,6.00
2023-06-29T18:11:41.463Z,7.18
2023-06-29T18:14:08.025Z,7.78
2023-06-29T18:16:35.026Z,7.97
2023-06-29T18:19:02.984Z,8.70
2023-06-29T18:21:29.508Z,5.85
2023-06-29T18:23:56.022Z,6.68
2023-06-29T18:26:23.645Z,5.95
2023-06-29T18:28:50.274Z,6.55
2023-06-29T18:31:17.018Z,5.90
2023-06-29T18:33:43.641Z,6.05
2023-06-29T18:36:10.279Z,6.10
2023-06-29T18:38:36.979Z,6.22
2023-06-29T18:41:03.513Z,6.53
2023-06-29T18:43:30.038Z,5.75
2023-06-29T18:45:56.581Z,6.28
2023-06-29T18:48:23.167Z,4.95
2023-06-29T18:50:49.667Z,6.07
2023-06-29T18:53:16.191Z,5.70
2023-06-29T18:55:42.720Z,5.28
2023-06-29T18:58:09.243Z,5.65
2023-06-29T19:00:36.889Z,5.32
2023-06-29T19:03:03.485Z,5.18
2023-06-29T19:05:30.944Z,5.85
2023-06-29T19:07:57.571Z,11.27
2023-06-29T19:10:24.273Z,7.18
2023-06-29T19:12:50.770Z,5.00
2023-06-29T19:15:17.341Z,4.63
2023-06-29T19:17:43.972Z,6.50
2023-06-29T19:20:11.187Z,5.72
2023-06-29T19:22:37.647Z,6.82
2023-06-29T19:25:04.559Z,5.82
2023-06-29T19:27:31.068Z,6.07
2023-06-29T19:29:57.568Z,6.28
2023-06-29T19:32:24.063Z,7.45
2023-06-29T19:34:51.456Z,6.53
2023-06-29T19:37:18.405Z,7.50
2023-06-29T19:39:44.907Z,5.28
2023-06-29T19:42:11.374Z,7.13
2023-06-29T19:44:37.844Z,6.03
2023-06-29T19:47:04.785Z,5.38
2023-06-29T19:49:31.274Z,4.72
2023-06-29T19:51:58.806Z,6.10
2023-06-29T19:54:25.986Z,5.03
2023-06-29T19:56:52.575Z,6.57
2023-06-29T19:59:19.119Z,4.80
2023-06-29T20:01:45.614Z,6.53
2023-06-29T20:04:12.259Z,7.10
2023-06-29T20:06:38.938Z,5.90
2023-06-29T20:09:05.435Z,5.60
2023-06-29T20:11:31.949Z,5.00
2023-06-29T20:13:58.515Z,7.22
2023-06-29T20:16:25.149Z,5.13
2023-06-29T20:18:52.503Z,5.55
2023-06-29T20:21:19.298Z,5.45
2023-06-29T20:23:51.313Z,6.05
2023-06-29T20:26:18.871Z,5.30
2023-06-29T20:28:45.687Z,6.80
2023-06-29T20:31:12.184Z,5.82
2023-06-29T20:33:38.746Z,6.63
2023-06-29T20:36:05.727Z,7.07
2023-06-29T20:38:32.209Z,7.25
2023-06-29T20:40:58.691Z,7.22
2023-06-29T20:43:25.572Z,6.82
2023-06-29T20:45:52.502Z,7.18
2023-06-29T20:48:19.174Z,7.82
2023-06-29T20:50:45.644Z,5.88
2023-06-29T20:53:12.143Z,7.30
2023-06-29T20:55:38.629Z,5.63
2023-06-29T20:58:05.407Z,5.18
2023-06-29T21:00:33.836Z,5.93
2023-06-29T21:03:00.504Z,6.65
2023-06-29T21:05:27.497Z,6.20
2023-06-29T21:07:54.239Z,6.15
2023-06-29T21:10:21.012Z,7.00
2023-06-29T21:12:49.432Z,5.30
2023-06-29T21:15:16.140Z,6.18
2023-06-29T21:17:42.740Z,5.68
2023-06-29T21:20:09.740Z,6.85
2023-06-29T21:22:36.788Z,6.30
2023-06-29T21:25:04.632Z,5.53
2023-06-29T21:27:32.418Z,7.32
2023-06-29T21:29:59.267Z,6.25
2023-06-29T21:32:25.898Z,4.88
2023-06-29T21:34:52.566Z,6.55
2023-06-29T21:37:20.994Z,6.50
2023-06-29T21:39:47.498Z,5.07
2023-06-29T21:42:14.223Z,4.53
2023-06-29T21:44:40.759Z,6.13
2023-06-29T21:47:07.495Z,4.90
2023-06-29T21:49:34.284Z,5.88
2023-06-29T21:52:00.768Z,5.43
2023-06-29T21:54:27.315Z,5.97
2023-06-29T21:56:54.146Z,5.45
2023-06-29T21:59:20.753Z,6.43
2023-06-29T22:01:47.493Z,5.95
2023-06-29T22:04:14.443Z,5.32
2023-06-29T22:06:41.103Z,5.28
2023-06-29T22:09:07.814Z,5.68
2023-06-29T22:11:34.297Z,4.88
2023-06-29T22:14:01.023Z,5.72
2023-06-29T22:16:29.259Z,6.20
2023-06-29T22:18:56.838Z,5.38
2023-06-29T22:21:25.308Z,5.95
2023-06-29T22:23:53.070Z,5.38
2023-06-29T22:26:19.771Z,5.53
2023-06-29T22:28:46.784Z,5.45
2023-06-29T22:31:15.338Z,5.82
2023-06-29T22:33:41.991Z,6.03
2023-06-29T22:36:08.575Z,4.97
2023-06-29T22:38:35.938Z,5.05
2023-06-29T22:41:05.483Z,5.75
2023-06-29T22:43:32.879Z,5.95
2023-06-29T22:45:59.529Z,6.28
2023-06-29T22:48:26.068Z,6.30
2023-06-29T22:50:52.651Z,8.30
2023-06-29T22:53:19.331Z,5.63
2023-06-29T22:55:46.041Z,6.75
2023-06-29T22:58:22.196Z,7.88
2023-06-29T23:00:48.672Z,6.25
2023-06-29T23:03:15.352Z,6.63
2023-06-29T23:05:41.838Z,5.80
2023-06-29T23:08:09.728Z,5.43
2023-06-29T23:10:37.424Z,7.10
2023-06-29T23:13:03.904Z,7.30
2023-06-29T23:15:30.648Z,5.70
2023-06-29T23:18:00.177Z,6.60
2023-06-29T23:20:27.304Z,6.22
2023-06-29T23:22:54.203Z,6.05
2023-06-29T23:25:20.659Z,5.85
2023-06-29T23:27:47.166Z,6.50
2023-06-29T23:30:15.181Z,5.28
2023-06-29T23:32:42.180Z,6.05
2023-06-29T23:35:09.991Z,5.47
2023-06-29T23:37:37.538Z,5.88
2023-06-29T23:40:10.245Z,4.97
2023-06-29T23:42:40.273Z,4.63
2023-06-29T23:45:10.888Z,5.13
2023-06-29T23:47:40.457Z,5.30
2023-06-29T23:50:10.663Z,5.78
2023-06-29T23:52:37.138Z,6.03
2023-06-29T23:55:04.029Z,4.82
2023-06-29T23:57:30.607Z,5.72
2023-06-29T23:59:57.102Z,6.00
